Decoded Metar for KTPL (TEMPLE/MILLER in TX, USA) (IATA:TPL) | Meteo·Mobile Aviation Weather
aviador You're here:

KTPL Decoded Metar

TEMPLE/MILLER in TX, USA
Report Time2019-02-16 17:51:00
UTC Time2019-02-16 18:05:37
Flight Rules mvfr MVFR
Wind330° at 09 kt
W.Decomp.*RWY 33: 8.9 kt HW 1.1 kt LCW
RWY 02: 4.9 kt HW 7.5 kt LCW
W.Rank330° ranks 11
Current wind is above 330° avg. (8.0)
Visibility9999 m
Phenomena:N/A
Clouds:Overcast 010 Hf
Expected CloudBase > 800 ft AGL from Temp-Dew spread
Ceiling1,000 ft
Temp04°C (ISA -10)
Dew Point02°C (87% RH)
AAT-0.9°C
QNH1012 hPa
Density Alt-351 ft
Elevation682 ft
Report Wrong Elevation
Raw Report
KTPL 161751Z AUTO 33009KT 10SM OVC010 04/02 A2988 RMK AO2 SLP136
T00390022 10039 20028 58017=

Extra information for KTPL:More info

Metar Taf Metar & Taf Last 4 Metars F.Rules Stats Wind Profile Meteogram Temp Stats Airport Information Weather charts Add Link Nearby VenuesMetar ALERT Operation Metar Decoded Social comments

AIRNAV info for KTPL